createdAt,value
2023-04-04T00:00:52.040Z,101216.89
2023-04-04T00:03:20.149Z,101215.23
2023-04-04T00:05:48.097Z,101216.46
2023-04-04T00:08:15.832Z,101213.14
2023-04-04T00:10:43.820Z,101212.38
2023-04-04T00:13:12.246Z,101208.85
2023-04-04T00:15:40.007Z,101205.64
2023-04-04T00:18:07.967Z,101205.48
2023-04-04T00:20:35.756Z,101202.89
2023-04-04T00:23:03.839Z,101197.29
2023-04-04T00:25:31.592Z,101195.47
2023-04-04T00:28:01.329Z,101197.02
2023-04-04T00:30:32.147Z,101196.52
2023-04-04T00:33:02.108Z,101194.49
2023-04-04T00:35:30.038Z,101194.23
2023-04-04T00:37:58.077Z,101193.43
2023-04-04T00:40:25.867Z,101192.65
2023-04-04T00:42:54.065Z,101190.81
2023-04-04T00:45:22.009Z,101187.50
2023-04-04T00:47:51.572Z,101185.65
2023-04-04T00:50:19.655Z,101182.55
2023-04-04T00:52:47.439Z,101178.81
2023-04-04T00:55:15.394Z,101174.96
2023-04-04T00:57:43.317Z,101176.75
2023-04-04T01:00:12.335Z,101175.95
2023-04-04T01:02:40.592Z,101172.92
2023-04-04T01:05:08.828Z,101168.61
2023-04-04T01:07:37.336Z,101164.80
2023-04-04T01:10:06.120Z,101161.41
2023-04-04T01:12:34.633Z,101154.84
2023-04-04T01:15:02.517Z,101149.54
2023-04-04T01:17:30.673Z,101148.17
2023-04-04T01:20:06.251Z,101146.59
2023-04-04T01:22:34.995Z,101144.84
2023-04-04T01:25:05.875Z,101141.56
2023-04-04T01:27:34.733Z,101140.13
2023-04-04T01:30:03.558Z,101138.40
2023-04-04T01:32:40.507Z,101137.08
2023-04-04T01:35:35.811Z,101134.09
2023-04-04T01:38:29.890Z,101128.50
2023-04-04T01:41:09.578Z,101129.81
2023-04-04T01:43:37.661Z,101128.64
2023-04-04T01:46:06.184Z,101132.94
2023-04-04T01:48:36.848Z,101133.26
2023-04-04T01:51:04.913Z,101133.09
2023-04-04T01:53:32.679Z,101140.60
2023-04-04T01:56:00.450Z,101136.92
2023-04-04T01:58:28.205Z,101135.91
2023-04-04T02:00:56.292Z,101138.01
2023-04-04T02:03:24.761Z,101141.67
2023-04-04T02:05:52.934Z,101142.54
2023-04-04T02:08:20.605Z,101143.58
2023-04-04T02:10:48.347Z,101141.05
2023-04-04T02:13:16.825Z,101139.05
2023-04-04T02:15:44.662Z,101140.08
2023-04-04T02:18:12.379Z,101138.25
2023-04-04T02:20:40.300Z,101138.06
2023-04-04T02:23:08.338Z,101137.77
2023-04-04T02:25:36.240Z,101136.00
2023-04-04T02:28:04.115Z,101138.58
2023-04-04T02:30:32.119Z,101139.66
2023-04-04T02:33:00.321Z,101141.54
2023-04-04T02:35:28.185Z,101142.37
2023-04-04T02:37:56.053Z,101143.20
2023-04-04T02:40:23.966Z,101142.91
2023-04-04T02:42:51.736Z,101144.14
2023-04-04T02:45:19.727Z,101143.65
2023-04-04T02:47:51.823Z,101143.67
2023-04-04T02:50:19.633Z,101142.84
2023-04-04T02:52:47.392Z,101142.40
2023-04-04T02:55:16.357Z,101141.55
2023-04-04T02:57:51.173Z,101145.67
2023-04-04T03:00:19.745Z,101149.48
2023-04-04T03:02:54.284Z,101146.08
2023-04-04T03:05:25.284Z,101144.94
2023-04-04T03:07:56.267Z,101143.09
2023-04-04T03:10:25.857Z,101142.14
2023-04-04T03:12:53.580Z,101147.48
2023-04-04T03:15:21.546Z,101146.79
2023-04-04T03:17:49.707Z,101148.54
2023-04-04T03:20:17.684Z,101148.02
2023-04-04T03:22:45.414Z,101142.11
2023-04-04T03:25:13.145Z,101140.78
2023-04-04T03:27:41.221Z,101140.84
2023-04-04T03:30:09.955Z,101138.27
2023-04-04T03:32:39.403Z,101139.10
2023-04-04T03:35:08.124Z,101139.80
2023-04-04T03:37:35.873Z,101138.88
2023-04-04T03:40:04.084Z,101136.82
2023-04-04T03:42:35.774Z,101136.05
2023-04-04T03:45:04.047Z,101137.77
2023-04-04T03:47:32.069Z,101136.25
2023-04-04T03:49:59.956Z,101136.98
2023-04-04T03:52:27.828Z,101139.36
2023-04-04T03:54:59.042Z,101139.35
2023-04-04T03:57:27.227Z,101139.39
2023-04-04T03:59:55.137Z,101140.03
2023-04-04T04:02:22.905Z,101140.52
2023-04-04T04:04:50.695Z,101144.29
2023-04-04T04:07:18.609Z,101145.11
2023-04-04T04:09:46.751Z,101144.21
2023-04-04T04:12:15.327Z,101142.97
2023-04-04T04:14:43.115Z,101140.04
2023-04-04T04:17:10.790Z,101136.73
2023-04-04T04:19:38.872Z,101136.02
2023-04-04T04:22:06.800Z,101137.20
2023-04-04T04:24:34.592Z,101133.90
2023-04-04T04:27:02.415Z,101133.35
2023-04-04T04:29:31.313Z,101130.98
2023-04-04T04:31:59.225Z,101132.81
2023-04-04T04:34:27.619Z,101131.80
2023-04-04T04:36:55.373Z,101128.08
2023-04-04T04:39:23.574Z,101129.02
2023-04-04T04:41:51.250Z,101128.87
2023-04-04T04:44:19.782Z,101129.46
2023-04-04T04:46:47.559Z,101133.19
2023-04-04T04:49:15.580Z,101129.73
2023-04-04T04:51:43.389Z,101133.79
2023-04-04T04:54:11.280Z,101131.13
2023-04-04T04:56:39.099Z,101135.09
2023-04-04T04:59:09.123Z,101130.52
2023-04-04T05:01:37.053Z,101127.83
2023-04-04T05:04:08.416Z,101123.98
2023-04-04T05:06:38.447Z,101123.95
2023-04-04T05:09:06.346Z,101124.09
2023-04-04T05:11:34.249Z,101128.16
2023-04-04T05:14:01.959Z,101128.52
2023-04-04T05:16:30.015Z,101131.64
2023-04-04T05:18:57.997Z,101132.80
2023-04-04T05:21:25.876Z,101128.63
2023-04-04T05:23:53.718Z,101131.10
2023-04-04T05:26:21.600Z,101131.89
2023-04-04T05:28:49.407Z,101130.92
2023-04-04T05:31:17.328Z,101133.30
2023-04-04T05:33:45.622Z,101132.73
2023-04-04T05:36:13.521Z,101131.74
2023-04-04T05:38:41.244Z,101131.52
2023-04-04T05:41:09.052Z,101132.00
2023-04-04T05:43:37.005Z,101131.95
2023-04-04T05:46:04.997Z,101134.46
2023-04-04T05:48:32.888Z,101133.93
2023-04-04T05:51:00.948Z,101135.13
2023-04-04T05:53:30.336Z,101134.98
2023-04-04T05:55:58.921Z,101135.00
2023-04-04T05:58:27.474Z,101134.65
2023-04-04T06:00:55.833Z,101140.40
2023-04-04T06:03:23.652Z,101147.50
2023-04-04T06:05:53.016Z,101143.73
2023-04-04T06:14:40.972Z,101143.58
2023-04-04T06:17:11.213Z,101144.33
2023-04-04T06:19:39.083Z,101146.06
2023-04-04T06:22:07.094Z,101138.13
2023-04-04T06:24:36.318Z,101135.67
2023-04-04T06:27:08.754Z,101133.52
2023-04-04T06:29:37.335Z,101133.95
2023-04-04T06:32:06.085Z,101134.17
2023-04-04T06:34:33.917Z,101132.00
2023-04-04T06:37:01.636Z,101133.52
2023-04-04T06:39:31.604Z,101132.27
2023-04-04T06:41:59.376Z,101129.68
2023-04-04T06:44:27.822Z,101123.94
2023-04-04T06:46:56.670Z,101124.83
2023-04-04T06:49:24.505Z,101124.69
2023-04-04T06:51:54.144Z,101122.02
2023-04-04T06:54:23.666Z,101123.61
2023-04-04T06:56:52.819Z,101125.96
2023-04-04T06:59:20.975Z,101121.61
2023-04-04T07:01:48.865Z,101124.21
2023-04-04T07:04:20.234Z,101125.23
2023-04-04T07:06:47.948Z,101124.73
2023-04-04T07:09:28.087Z,101123.63
2023-04-04T07:11:56.917Z,101121.41
2023-04-04T07:14:25.750Z,101124.19
2023-04-04T07:16:53.982Z,101119.93
2023-04-04T07:19:24.638Z,101123.24
2023-04-04T07:21:52.544Z,101116.82
2023-04-04T07:24:20.299Z,101117.45
2023-04-04T07:26:48.057Z,101120.58
2023-04-04T07:29:15.847Z,101119.98
2023-04-04T07:31:43.635Z,101119.60
2023-04-04T07:34:11.566Z,101115.14
2023-04-04T07:36:39.329Z,101113.04
2023-04-04T07:39:07.184Z,101112.58
2023-04-04T07:41:35.772Z,101107.73
2023-04-04T07:44:04.646Z,101108.77
2023-04-04T07:46:32.720Z,101108.11
2023-04-04T07:49:01.317Z,101112.98
2023-04-04T07:51:30.891Z,101106.63
2023-04-04T07:53:58.870Z,101106.98
2023-04-04T07:56:27.150Z,101102.55
2023-04-04T07:58:54.899Z,101102.20
2023-04-04T08:01:22.647Z,101095.19
2023-04-04T08:03:53.360Z,101096.53
2023-04-04T08:06:21.517Z,101094.25
2023-04-04T08:08:49.466Z,101090.02
2023-04-04T08:11:17.707Z,101086.24
2023-04-04T08:13:46.225Z,101084.15
2023-04-04T08:16:13.966Z,101085.77
2023-04-04T08:18:41.917Z,101084.20
2023-04-04T08:21:09.647Z,101088.52
2023-04-04T08:23:37.360Z,101083.98
2023-04-04T08:26:05.262Z,101080.61
2023-04-04T08:28:32.982Z,101075.16
2023-04-04T08:31:01.231Z,101074.42
2023-04-04T08:33:40.843Z,101069.71
2023-04-04T08:36:12.247Z,101072.02
2023-04-04T08:38:40.569Z,101066.27
2023-04-04T08:41:09.822Z,101066.23
2023-04-04T08:43:41.322Z,101064.93
2023-04-04T08:46:11.812Z,101060.17
2023-04-04T08:48:43.401Z,101068.66
2023-04-04T08:51:14.232Z,101064.84
2023-04-04T08:53:42.837Z,101059.58
2023-04-04T08:56:11.339Z,101059.84
2023-04-04T08:58:39.542Z,101060.30
2023-04-04T09:01:08.367Z,101060.58
2023-04-04T09:03:37.681Z,101065.30
2023-04-04T09:06:05.757Z,101060.20
2023-04-04T09:08:34.954Z,101062.92
2023-04-04T09:11:04.767Z,101065.02
2023-04-04T09:13:32.762Z,101065.48
2023-04-04T09:16:01.366Z,101062.70
2023-04-04T09:18:30.095Z,101057.76
2023-04-04T09:20:58.165Z,101057.07
2023-04-04T09:23:26.373Z,101058.20
2023-04-04T09:28:26.415Z,101053.05
2023-04-04T09:30:55.065Z,101056.80
2023-04-04T09:33:24.658Z,101055.27
2023-04-04T09:35:59.008Z,101055.98
2023-04-04T09:38:29.966Z,101060.47
2023-04-04T09:40:58.300Z,101062.27
2023-04-04T09:43:26.865Z,101060.19
2023-04-04T09:45:55.356Z,101060.50
2023-04-04T09:48:34.781Z,101055.66
2023-04-04T09:51:12.705Z,101053.91
2023-04-04T09:53:42.326Z,101054.12
2023-04-04T09:56:11.360Z,101051.88
2023-04-04T09:58:46.251Z,101050.27
2023-04-04T10:01:21.061Z,101051.74
2023-04-04T10:03:56.101Z,101058.23
2023-04-04T10:06:24.099Z,101056.45
2023-04-04T10:08:53.172Z,101055.33
2023-04-04T10:11:33.598Z,101057.61
2023-04-04T10:14:04.226Z,101064.20
2023-04-04T10:16:34.677Z,101062.42
2023-04-04T10:19:05.534Z,101064.84
2023-04-04T10:21:33.967Z,101064.40
2023-04-04T10:24:09.268Z,101067.75
2023-04-04T10:26:37.821Z,101066.39
2023-04-04T10:29:06.482Z,101067.11
2023-04-04T10:31:41.222Z,101057.68
2023-04-04T10:34:24.874Z,101054.91
2023-04-04T10:37:16.880Z,101054.87
2023-04-04T10:40:05.789Z,101053.61
2023-04-04T10:42:39.954Z,101056.32
2023-04-04T10:45:19.813Z,101053.83
2023-04-04T10:47:50.680Z,101050.91
2023-04-04T10:50:20.823Z,101049.71
2023-04-04T10:52:49.342Z,101045.98
2023-04-04T10:55:17.754Z,101047.66
2023-04-04T10:57:52.831Z,101047.95
2023-04-04T11:00:24.325Z,101042.08
2023-04-04T11:03:02.756Z,101041.35
2023-04-04T11:05:47.557Z,101046.38
2023-04-04T11:08:22.468Z,101038.90
2023-04-04T11:10:52.557Z,101034.97
2023-04-04T11:13:23.721Z,101033.60
2023-04-04T11:16:07.317Z,101031.70
2023-04-04T11:18:45.761Z,101030.48
2023-04-04T11:21:26.536Z,101029.05
2023-04-04T11:23:54.341Z,101024.38
2023-04-04T11:26:28.410Z,101025.62
2023-04-04T11:29:00.650Z,101022.28
2023-04-04T11:31:29.971Z,101022.69
2023-04-04T11:34:05.349Z,101021.86
2023-04-04T11:36:38.806Z,101023.48
2023-04-04T11:39:10.358Z,101019.92
2023-04-04T11:41:54.659Z,101018.82
2023-04-04T11:44:23.955Z,101021.73
2023-04-04T11:47:07.090Z,101025.70
2023-04-04T11:49:37.222Z,101023.66
2023-04-04T11:52:10.142Z,101026.05
2023-04-04T11:54:39.134Z,101028.38
2023-04-04T11:57:08.385Z,101029.66
2023-04-04T11:59:40.869Z,101023.14
2023-04-04T12:02:10.588Z,101026.40
2023-04-04T12:04:45.551Z,101020.83
2023-04-04T12:07:15.429Z,101016.63
2023-04-04T12:09:44.292Z,101013.21
2023-04-04T12:12:18.852Z,101014.08
2023-04-04T12:14:47.162Z,101013.65
2023-04-04T12:17:17.062Z,101013.29
2023-04-04T12:19:44.971Z,101015.05
2023-04-04T12:22:12.747Z,101014.31
2023-04-04T12:24:41.389Z,101017.21
2023-04-04T12:27:09.352Z,101016.41
2023-04-04T12:29:38.119Z,101015.30
2023-04-04T12:32:07.707Z,101016.23
2023-04-04T12:34:42.364Z,101017.27
2023-04-04T12:37:11.930Z,101014.39
2023-04-04T12:39:51.195Z,101014.39
2023-04-04T12:42:23.866Z,101012.58
2023-04-04T12:44:53.989Z,101009.95
2023-04-04T12:47:24.936Z,101008.61
2023-04-04T12:49:56.735Z,101008.14
2023-04-04T12:52:33.485Z,101005.43
2023-04-04T12:55:12.770Z,101007.00
2023-04-04T12:57:41.071Z,101009.52
2023-04-04T13:00:09.767Z,101008.04
2023-04-04T13:02:39.359Z,101003.09
2023-04-04T13:05:10.232Z,100998.54
2023-04-04T13:07:43.466Z,100999.50
2023-04-04T13:10:15.044Z,100998.29
2023-04-04T13:13:00.584Z,101002.75
2023-04-04T13:15:51.947Z,100998.71
2023-04-04T13:18:23.783Z,101001.98
2023-04-04T13:20:53.733Z,101000.89
2023-04-04T13:23:22.806Z,101002.33
2023-04-04T13:25:51.577Z,101000.88
2023-04-04T13:28:19.488Z,101001.56
2023-04-04T13:30:49.602Z,101001.45
2023-04-04T13:33:22.311Z,100998.16
2023-04-04T13:35:51.462Z,100995.48
2023-04-04T13:38:19.193Z,100991.10
2023-04-04T13:40:47.269Z,100992.60
2023-04-04T13:43:15.654Z,100992.85
2023-04-04T13:45:44.589Z,100990.73
2023-04-04T13:48:13.251Z,100986.63
2023-04-04T13:50:51.070Z,100987.23
2023-04-04T13:53:18.978Z,100987.40
2023-04-04T13:56:07.585Z,100990.94
2023-04-04T13:58:34.673Z,100987.57
2023-04-04T14:01:07.349Z,100986.08
2023-04-04T14:03:36.343Z,100984.68
2023-04-04T14:06:10.286Z,100982.11
2023-04-04T14:08:39.724Z,100980.27
2023-04-04T14:11:08.453Z,100981.90
2023-04-04T14:13:36.894Z,100979.85
2023-04-04T14:16:07.644Z,100982.28
2023-04-04T14:31:37.522Z,100975.66
2023-04-04T14:34:10.829Z,100978.11
2023-04-04T14:36:38.767Z,100975.67
2023-04-04T14:39:06.501Z,100968.91
2023-04-04T14:41:34.267Z,100964.80
2023-04-04T14:44:04.194Z,100965.95
2023-04-04T14:46:34.110Z,100969.51
2023-04-04T14:49:03.465Z,100967.96
2023-04-04T14:51:32.203Z,100969.63
2023-04-04T14:54:00.560Z,100973.89
2023-04-04T14:56:28.514Z,100969.20
2023-04-04T14:58:57.331Z,100968.51
2023-04-04T15:01:25.490Z,100971.27
2023-04-04T15:03:55.702Z,100966.71
2023-04-04T15:06:23.856Z,100965.30
2023-04-04T15:08:51.612Z,100964.65
2023-04-04T15:11:19.352Z,100960.83
2023-04-04T15:13:47.280Z,100961.98
2023-04-04T15:16:15.140Z,100955.81
2023-04-04T15:18:43.036Z,100955.92
2023-04-04T15:21:11.497Z,100955.42
2023-04-04T15:23:39.252Z,100954.48
2023-04-04T15:26:07.227Z,100949.54
2023-04-04T15:28:35.729Z,100952.74
2023-04-04T15:31:05.626Z,100949.09
2023-04-04T15:33:33.851Z,100951.63
2023-04-04T15:36:01.778Z,100949.02
2023-04-04T15:38:29.586Z,100949.59
2023-04-04T15:40:58.141Z,100948.51
2023-04-04T15:43:25.820Z,100950.00
2023-04-04T15:45:53.858Z,100954.39
2023-04-04T15:48:22.571Z,100947.86
2023-04-04T15:50:51.342Z,100950.29
2023-04-04T15:53:19.367Z,100952.27
2023-04-04T15:55:47.234Z,100955.23
2023-04-04T15:58:15.090Z,100952.19
2023-04-04T16:00:46.300Z,100950.87
2023-04-04T16:03:15.318Z,100948.31
2023-04-04T16:05:43.154Z,100953.27
2023-04-04T16:08:12.258Z,100952.16
2023-04-04T16:10:40.562Z,100952.63
2023-04-04T16:13:08.718Z,100947.92
2023-04-04T16:15:36.838Z,100949.58
2023-04-04T16:18:04.878Z,100950.31
2023-04-04T16:20:32.713Z,100945.94
2023-04-04T16:23:00.896Z,100945.40
2023-04-04T16:25:29.450Z,100945.59
2023-04-04T16:27:57.289Z,100944.85
2023-04-04T16:30:25.223Z,100945.36
2023-04-04T16:32:53.176Z,100947.63
2023-04-04T16:35:21.155Z,100949.63
2023-04-04T16:37:48.911Z,100950.13
2023-04-04T16:40:17.968Z,100950.27
2023-04-04T16:42:51.700Z,100951.83
2023-04-04T16:45:19.653Z,100949.92
2023-04-04T16:47:47.376Z,100949.88
2023-04-04T16:50:15.365Z,100945.65
2023-04-04T16:52:43.211Z,100944.10
2023-04-04T16:55:11.094Z,100943.45
2023-04-04T16:57:38.955Z,100941.48
2023-04-04T17:00:10.135Z,100946.73
2023-04-04T17:02:45.655Z,100947.00
2023-04-04T17:05:14.935Z,100950.85
2023-04-04T17:07:43.405Z,100953.52
2023-04-04T17:10:12.419Z,100951.93
2023-04-04T17:12:40.722Z,100952.20
2023-04-04T17:15:10.201Z,100949.78
2023-04-04T17:17:38.244Z,100951.18
2023-04-04T17:20:07.438Z,100951.54
2023-04-04T17:22:36.201Z,100954.56
2023-04-04T17:25:04.662Z,100956.84
2023-04-04T17:27:33.230Z,100955.80
2023-04-04T17:30:02.444Z,100955.20
2023-04-04T17:32:31.859Z,100959.30
2023-04-04T17:35:00.358Z,100961.59
2023-04-04T17:37:29.141Z,100963.10
2023-04-04T17:39:59.598Z,100967.20
2023-04-04T17:42:27.568Z,100964.73
2023-04-04T17:44:55.354Z,100968.54
2023-04-04T17:47:23.370Z,100970.15
2023-04-04T17:49:52.296Z,100975.80
2023-04-04T17:52:20.340Z,100975.25
2023-04-04T17:54:48.752Z,100977.23
2023-04-04T17:57:16.808Z,100977.13
2023-04-04T17:59:44.636Z,100976.80
2023-04-04T18:02:12.322Z,100983.98
2023-04-04T18:04:40.559Z,100982.71
2023-04-04T18:07:09.039Z,100978.94
2023-04-04T18:09:37.036Z,100982.93
2023-04-04T18:12:05.587Z,100985.02
2023-04-04T18:14:33.670Z,100991.63
2023-04-04T18:17:01.881Z,100992.83
2023-04-04T18:19:30.370Z,100995.23
2023-04-04T18:22:00.477Z,100996.59
2023-04-04T18:24:28.604Z,100996.60
2023-04-04T18:26:56.659Z,100998.74
2023-04-04T18:29:26.818Z,100998.80
2023-04-04T18:31:54.992Z,101001.66
2023-04-04T18:34:23.452Z,101000.23
2023-04-04T18:36:51.314Z,100999.45
2023-04-04T18:39:19.716Z,101001.38
2023-04-04T18:41:48.072Z,101003.06
2023-04-04T18:44:16.397Z,101001.18
2023-04-04T18:46:44.538Z,101003.14
2023-04-04T18:49:12.512Z,101002.87
2023-04-04T18:51:40.196Z,101003.91
2023-04-04T18:54:08.461Z,101007.02
2023-04-04T18:56:38.805Z,101008.85
2023-04-04T18:59:07.324Z,101006.32
2023-04-04T19:01:36.016Z,101009.20
2023-04-04T19:04:04.564Z,101004.73
2023-04-04T19:06:33.430Z,101004.73
2023-04-04T19:09:04.278Z,101008.20
2023-04-04T19:11:32.443Z,101003.61
2023-04-04T19:14:00.589Z,101003.11
2023-04-04T19:16:28.714Z,101002.79
2023-04-04T19:18:56.826Z,101003.46
2023-04-04T19:21:25.513Z,101002.88
2023-04-04T19:23:53.463Z,101000.83
2023-04-04T19:26:21.502Z,100997.95
2023-04-04T19:28:50.602Z,100998.38
2023-04-04T19:31:24.147Z,100995.55
2023-04-04T19:33:55.924Z,100999.27
2023-04-04T19:36:24.615Z,100997.13
2023-04-04T19:38:54.659Z,100994.56
2023-04-04T19:41:36.266Z,100997.08
2023-04-04T19:44:07.624Z,100996.95
2023-04-04T19:46:35.637Z,100995.94
2023-04-04T19:49:14.207Z,100996.55
2023-04-04T19:51:42.748Z,101000.76
2023-04-04T19:54:15.080Z,101000.84
2023-04-04T19:56:46.377Z,100999.54
2023-04-04T19:59:59.460Z,100999.09
2023-04-04T20:02:27.409Z,100998.33
2023-04-04T20:04:55.582Z,100996.48
2023-04-04T20:07:24.444Z,101000.41
2023-04-04T20:09:52.979Z,100997.20
2023-04-04T20:12:25.880Z,100990.80
2023-04-04T20:14:58.976Z,100991.95
2023-04-04T20:17:26.990Z,100991.53
2023-04-04T20:19:54.781Z,100987.05
2023-04-04T20:22:23.098Z,100989.94
2023-04-04T20:24:53.035Z,100985.46
2023-04-04T20:27:24.503Z,100985.63
2023-04-04T20:29:54.096Z,100988.50
2023-04-04T20:32:21.901Z,100989.05
2023-04-04T20:34:50.700Z,100987.90
2023-04-04T20:37:26.562Z,100986.34
2023-04-04T20:39:54.526Z,100988.04
2023-04-04T20:42:31.139Z,100990.40
2023-04-04T20:45:11.782Z,100991.50
2023-04-04T20:47:44.682Z,100992.95
2023-04-04T20:50:19.197Z,100987.90
2023-04-04T20:52:58.776Z,100987.48
2023-04-04T20:55:31.690Z,100986.64
2023-04-04T20:58:07.541Z,100983.80
2023-04-04T21:00:40.047Z,100986.20
2023-04-04T21:03:29.322Z,100982.81
2023-04-04T21:06:01.416Z,100980.77
2023-04-04T21:08:41.388Z,100979.26
2023-04-04T21:11:11.141Z,100979.73
2023-04-04T21:13:40.881Z,100980.64
2023-04-04T21:16:10.599Z,100979.50
2023-04-04T21:18:40.073Z,100975.23
2023-04-04T21:21:16.543Z,100972.98
2023-04-04T21:23:55.877Z,100975.59
2023-04-04T21:26:35.533Z,100982.06
2023-04-04T21:29:16.751Z,100978.84
2023-04-04T21:31:44.633Z,100983.23
2023-04-04T21:34:15.771Z,100980.42
2023-04-04T21:36:44.998Z,100981.77
2023-04-04T21:39:14.619Z,100982.82
2023-04-04T21:41:45.418Z,100983.32
2023-04-04T21:44:13.821Z,100982.27
2023-04-04T21:46:42.769Z,100979.35
2023-04-04T21:49:11.422Z,100979.45
2023-04-04T21:51:39.251Z,100981.40
2023-04-04T21:54:07.582Z,100981.86
2023-04-04T21:56:35.604Z,100975.94
2023-04-04T21:59:05.471Z,100977.70
2023-04-04T22:01:33.680Z,100974.60
2023-04-04T22:04:02.054Z,100973.30
2023-04-04T22:06:30.980Z,100967.14
2023-04-04T22:09:01.920Z,100973.85
2023-04-04T22:11:30.298Z,100968.19
2023-04-04T22:14:08.039Z,100969.09
2023-04-04T22:16:40.226Z,100964.16
2023-04-04T22:19:11.595Z,100963.07
2023-04-04T22:21:46.797Z,100966.70
2023-04-04T22:24:17.920Z,100966.69
2023-04-04T22:26:46.339Z,100968.39
2023-04-04T22:29:14.339Z,100961.70
2023-04-04T22:31:44.416Z,100961.83
2023-04-04T22:34:14.761Z,100961.36
2023-04-04T22:36:44.177Z,100964.23
2023-04-04T22:39:12.150Z,100963.35
2023-04-04T22:41:39.899Z,100965.00
2023-04-04T22:44:07.684Z,100963.89
2023-04-04T22:46:35.470Z,100962.90
2023-04-04T22:49:07.105Z,100965.11
2023-04-04T22:51:44.104Z,100966.44
2023-04-04T22:54:14.687Z,100967.91
2023-04-04T22:56:42.481Z,100961.48
2023-04-04T22:59:11.563Z,100961.86
2023-04-04T23:01:39.766Z,100960.04
2023-04-04T23:04:08.113Z,100963.34
2023-04-04T23:06:36.416Z,100959.45
2023-04-04T23:09:04.336Z,100958.44
2023-04-04T23:11:32.133Z,100956.65
2023-04-04T23:14:00.729Z,100955.55
2023-04-04T23:16:28.867Z,100954.41
2023-04-04T23:18:57.264Z,100951.60
2023-04-04T23:21:25.248Z,100951.00
2023-04-04T23:23:53.029Z,100945.49
2023-04-04T23:26:20.789Z,100946.64
2023-04-04T23:28:51.056Z,100941.10
2023-04-04T23:31:20.561Z,100936.40
2023-04-04T23:33:48.582Z,100936.86
2023-04-04T23:36:16.519Z,100935.65
2023-04-04T23:38:45.057Z,100929.98
2023-04-04T23:41:12.888Z,100927.64
2023-04-04T23:43:42.868Z,100920.86
2023-04-04T23:46:14.153Z,100918.34
2023-04-04T23:48:42.153Z,100920.27
2023-04-04T23:51:10.960Z,100921.00
2023-04-04T23:53:39.463Z,100923.15
2023-04-04T23:56:07.778Z,100923.45
2023-04-04T23:58:37.331Z,100919.55
